createdAt,value
2019-05-13T00:01:43.537Z,102687.97
2019-05-13T00:04:14.282Z,102681.91
2019-05-13T00:06:53.470Z,102687.56
2019-05-13T00:09:14.549Z,102687.94
2019-05-13T00:14:18.421Z,102688.36
2019-05-13T00:16:47.704Z,102690.91
2019-05-13T00:19:16.979Z,102693.03
2019-05-13T00:21:46.263Z,102696.53
2019-05-13T00:24:15.545Z,102700.84
2019-05-13T00:26:44.832Z,102701.73
2019-05-13T00:29:14.383Z,102706.51
2019-05-13T00:31:43.886Z,102713.00
2019-05-13T00:34:14.653Z,102709.95
2019-05-13T00:36:44.665Z,102709.50
2019-05-13T00:39:15.467Z,102706.04
2019-05-13T00:41:45.927Z,102705.11
2019-05-13T00:44:15.207Z,102705.94
2019-05-13T00:47:04.423Z,102708.92
2019-05-13T00:49:34.833Z,102708.52
2019-05-13T00:52:04.171Z,102715.45
2019-05-13T00:54:34.188Z,102730.63
2019-05-13T00:57:04.555Z,102735.80
2019-05-13T00:59:34.258Z,102733.60
2019-05-13T01:02:05.329Z,102736.20
2019-05-13T01:04:53.660Z,102736.14
2019-05-13T01:10:13.220Z,102737.42
2019-05-13T01:12:44.150Z,102740.43
2019-05-13T01:18:14.359Z,102742.98
2019-05-13T01:20:45.058Z,102739.50
2019-05-13T01:23:14.394Z,102740.34
2019-05-13T01:25:44.502Z,102751.16
2019-05-13T01:28:14.709Z,102742.86
2019-05-13T01:30:44.240Z,102744.16
2019-05-13T01:33:14.394Z,102743.66
2019-05-13T01:38:19.601Z,102745.83
2019-05-13T01:40:48.879Z,102748.44
2019-05-13T01:43:18.171Z,102754.56
2019-05-13T01:45:47.474Z,102748.41
2019-05-13T01:48:16.756Z,102748.34
2019-05-13T01:50:46.037Z,102758.34
2019-05-13T01:53:15.319Z,102758.33
2019-05-13T01:55:44.591Z,102761.74
2019-05-13T01:58:14.598Z,102762.17
2019-05-13T02:01:05.062Z,102760.82
2019-05-13T02:03:34.857Z,102720.48
2019-05-13T02:06:04.139Z,102766.84
2019-05-13T02:08:33.775Z,102766.02
2019-05-13T02:11:04.721Z,102763.39
2019-05-13T02:13:34.545Z,102765.13
2019-05-13T02:16:24.466Z,102757.30
2019-05-13T02:19:14.386Z,102765.11
2019-05-13T02:21:44.042Z,102756.35
2019-05-13T02:24:14.740Z,102756.35
2019-05-13T02:26:44.042Z,102752.48
2019-05-13T02:29:14.318Z,102755.54
2019-05-13T02:31:51.128Z,102755.52
2019-05-13T02:34:15.314Z,102765.48
2019-05-13T02:36:44.628Z,102766.34
2019-05-13T02:39:13.938Z,102764.17
2019-05-13T02:41:43.417Z,102763.30
2019-05-13T02:44:12.736Z,102761.55
2019-05-13T02:46:44.355Z,102759.78
2019-05-13T02:49:13.058Z,102762.39
2019-05-13T02:54:34.170Z,102764.08
2019-05-13T02:57:03.824Z,102759.78
2019-05-13T02:59:33.595Z,102758.48
2019-05-13T03:02:04.283Z,102762.80
2019-05-13T03:04:34.682Z,102764.58
2019-05-13T03:07:03.951Z,102755.45
2019-05-13T03:09:33.217Z,102759.34
2019-05-13T03:12:03.976Z,102763.25
2019-05-13T03:14:33.477Z,102754.11
2019-05-13T03:17:22.566Z,102764.08
2019-05-13T03:20:16.499Z,102759.31
2019-05-13T03:22:43.460Z,102768.91
2019-05-13T03:25:13.822Z,102768.91
2019-05-13T03:27:43.150Z,102771.95
2019-05-13T03:30:16.464Z,102769.81
2019-05-13T03:32:52.230Z,102778.09
2019-05-13T03:35:16.279Z,102779.86
2019-05-13T03:38:06.074Z,102775.60
2019-05-13T03:43:53.280Z,102778.30
2019-05-13T03:52:24.832Z,102789.37
2019-05-13T03:55:33.411Z,102777.84
2019-05-13T03:58:03.287Z,102775.28
2019-05-13T04:00:33.804Z,102772.66
2019-05-13T04:03:03.640Z,102778.36
2019-05-13T04:05:34.276Z,102780.58
2019-05-13T04:08:03.718Z,102778.87
2019-05-13T04:13:28.107Z,102789.42
2019-05-13T04:21:27.130Z,102795.27
2019-05-13T04:23:56.393Z,102810.17
2019-05-13T04:26:25.669Z,102823.73
2019-05-13T04:28:54.970Z,102828.22
2019-05-13T04:34:12.678Z,102810.72
2019-05-13T04:36:43.022Z,102816.55
2019-05-13T04:39:13.299Z,102819.30
2019-05-13T04:41:42.699Z,102818.97
2019-05-13T04:44:13.045Z,102823.92
2019-05-13T04:46:43.530Z,102822.25
2019-05-13T04:49:14.002Z,102824.95
2019-05-13T04:51:43.421Z,102825.02
2019-05-13T04:54:13.267Z,102826.39
2019-05-13T04:56:43.757Z,102825.16
2019-05-13T04:59:34.584Z,102827.83
2019-05-13T05:02:49.501Z,102821.75
2019-05-13T05:05:52.781Z,102827.92
2019-05-13T05:12:22.932Z,102829.70
2019-05-13T05:15:32.262Z,102825.79
2019-05-13T05:18:38.612Z,102831.48
2019-05-13T05:24:57.026Z,102825.81
2019-05-13T05:31:23.087Z,102840.23
2019-05-13T05:34:32.197Z,102844.59
2019-05-13T05:37:43.853Z,102839.36
2019-05-13T05:40:27.093Z,102837.16
2019-05-13T05:43:23.478Z,102842.91
2019-05-13T05:52:08.609Z,102845.41
2019-05-13T05:55:17.304Z,102844.94
2019-05-13T05:58:25.926Z,102849.69
2019-05-13T06:04:12.617Z,102845.73
2019-05-13T06:09:43.144Z,102846.20
2019-05-13T06:12:52.357Z,102852.30
2019-05-13T06:15:22.766Z,102841.33
2019-05-13T06:20:41.830Z,102858.38
2019-05-13T06:23:11.610Z,102856.59
2019-05-13T06:25:42.937Z,102863.63
2019-05-13T06:28:13.444Z,102857.01
2019-05-13T06:30:42.763Z,102858.28
2019-05-13T06:33:51.617Z,102859.12
2019-05-13T06:36:22.130Z,102859.10
2019-05-13T06:41:26.532Z,102861.20
2019-05-13T06:43:55.829Z,102858.05
2019-05-13T06:46:44.163Z,102854.47
2019-05-13T06:49:13.495Z,102858.33
2019-05-13T06:52:02.106Z,102853.36
2019-05-13T06:54:33.172Z,102857.62
2019-05-13T06:59:52.419Z,102859.17
2019-05-13T07:02:21.949Z,102862.54
2019-05-13T07:04:51.784Z,102857.63
2019-05-13T07:07:42.349Z,102857.08
2019-05-13T07:10:12.817Z,102857.77
2019-05-13T07:13:02.370Z,102855.44
2019-05-13T07:18:21.948Z,102851.17
2019-05-13T07:20:53.172Z,102853.02
2019-05-13T07:23:23.576Z,102850.05
2019-05-13T07:25:52.860Z,102851.70
2019-05-13T07:28:22.157Z,102851.16
2019-05-13T07:30:51.737Z,102851.53
2019-05-13T07:33:22.473Z,102846.63
2019-05-13T07:36:12.838Z,102847.34
2019-05-13T07:38:43.269Z,102845.40
2019-05-13T07:41:12.546Z,102846.23
2019-05-13T07:43:42.634Z,102854.03
2019-05-13T07:46:12.895Z,102853.87
2019-05-13T07:48:42.137Z,102848.31
2019-05-13T07:51:12.076Z,102852.05
2019-05-13T07:53:42.711Z,102857.45
2019-05-13T07:56:13.466Z,102867.77
2019-05-13T07:58:42.752Z,102864.55
2019-05-13T08:01:12.435Z,102864.27
2019-05-13T08:03:43.028Z,102874.25
2019-05-13T08:06:12.305Z,102819.98
2019-05-13T08:08:41.849Z,102865.01
2019-05-13T08:11:12.918Z,102857.71
2019-05-13T08:13:44.557Z,102862.88
2019-05-13T08:16:14.606Z,102864.42
2019-05-13T08:18:44.016Z,102867.81
2019-05-13T08:21:13.250Z,102857.05
2019-05-13T08:23:42.530Z,102858.56
2019-05-13T08:26:12.522Z,102858.41
2019-05-13T08:29:05.582Z,102869.16
2019-05-13T08:31:32.979Z,102859.91
2019-05-13T08:34:02.718Z,102876.23
2019-05-13T08:36:33.722Z,102864.70
2019-05-13T08:39:03.248Z,102869.92
2019-05-13T08:41:32.524Z,102853.88
2019-05-13T08:44:02.072Z,102874.67
2019-05-13T08:46:32.221Z,102865.13
2019-05-13T08:49:03.818Z,102858.27
2019-05-13T08:51:34.827Z,102861.98
2019-05-13T08:54:04.757Z,102861.31
2019-05-13T08:56:34.080Z,102861.41
2019-05-13T08:59:03.518Z,102860.82
2019-05-13T09:01:32.881Z,102865.17
2019-05-13T09:04:02.809Z,102889.95
2019-05-13T09:06:44.288Z,102894.26
2019-05-13T09:09:13.649Z,102891.37
2019-05-13T09:11:42.978Z,102887.87
2019-05-13T09:14:12.354Z,102878.71
2019-05-13T09:16:42.023Z,102875.38
2019-05-13T09:19:16.087Z,102878.03
2019-05-13T09:21:43.699Z,102896.02
2019-05-13T09:24:24.614Z,102897.07
2019-05-13T09:26:44.016Z,102879.91
2019-05-13T09:29:13.264Z,102879.70
2019-05-13T09:31:42.589Z,102871.81
2019-05-13T09:34:12.369Z,102880.36
2019-05-13T09:36:42.898Z,102877.79
2019-05-13T09:39:12.792Z,102866.82
2019-05-13T09:42:02.846Z,102882.19
2019-05-13T09:47:34.750Z,102884.24
2019-05-13T09:50:04.784Z,102886.21
2019-05-13T09:52:39.270Z,102874.65
2019-05-13T09:55:24.419Z,102875.16
2019-05-13T09:57:37.570Z,102881.23
2019-05-13T10:03:16.040Z,102873.73
2019-05-13T10:05:45.355Z,102876.06
2019-05-13T10:08:14.655Z,102891.53
2019-05-13T10:10:43.943Z,102898.34
2019-05-13T10:13:32.217Z,102899.11
2019-05-13T10:16:01.634Z,102898.89
2019-05-13T10:18:32.659Z,102894.29
2019-05-13T10:21:42.055Z,102890.80
2019-05-13T10:24:12.702Z,102899.95
2019-05-13T10:26:43.444Z,102889.91
2019-05-13T10:32:07.394Z,102881.47
2019-05-13T10:40:33.098Z,102888.77
2019-05-13T10:43:02.435Z,102894.05
2019-05-13T10:45:33.188Z,102921.27
2019-05-13T10:48:03.028Z,102919.34
2019-05-13T10:50:53.192Z,102919.21
2019-05-13T10:53:23.729Z,102919.88
2019-05-13T10:56:12.014Z,102937.78
2019-05-13T10:58:43.040Z,102929.30
2019-05-13T11:01:12.344Z,102942.82
2019-05-13T11:03:42.797Z,102925.88
2019-05-13T11:06:12.657Z,102943.48
2019-05-13T11:08:42.444Z,102950.05
2019-05-13T11:11:13.633Z,102950.33
2019-05-13T11:13:54.507Z,102950.70
2019-05-13T11:16:15.024Z,102948.47
2019-05-13T11:18:44.298Z,102908.05
2019-05-13T11:21:13.600Z,102939.55
2019-05-13T11:23:42.881Z,102941.27
2019-05-13T11:26:12.888Z,102932.66
2019-05-13T11:28:43.175Z,102940.72
2019-05-13T11:31:12.445Z,102931.73
2019-05-13T11:33:42.477Z,102938.89
2019-05-13T11:36:18.518Z,102938.41
2019-05-13T11:38:43.878Z,102931.80
2019-05-13T11:41:13.186Z,102945.32
2019-05-13T11:43:42.669Z,102928.73
2019-05-13T11:46:11.962Z,102935.83
2019-05-13T11:48:42.507Z,102943.20
2019-05-13T11:51:13.036Z,102932.09
2019-05-13T11:53:43.294Z,102941.41
2019-05-13T11:56:12.600Z,102945.73
2019-05-13T11:58:43.079Z,102938.91
2019-05-13T12:01:13.169Z,102940.39
2019-05-13T12:03:43.491Z,102949.28
2019-05-13T12:06:13.916Z,102945.19
2019-05-13T12:08:55.594Z,102953.36
2019-05-13T12:11:25.011Z,102938.70
2019-05-13T12:14:37.184Z,102961.83
2019-05-13T12:16:44.257Z,102953.61
2019-05-13T12:19:13.528Z,102948.23
2019-05-13T12:21:46.414Z,102955.44
2019-05-13T12:24:25.017Z,102953.33
2019-05-13T12:26:54.310Z,102950.56
2019-05-13T12:29:23.572Z,102951.91
2019-05-13T12:31:52.996Z,102943.72
2019-05-13T12:34:22.994Z,102951.09
2019-05-13T12:36:53.374Z,102952.36
2019-05-13T12:41:54.085Z,102948.92
2019-05-13T12:44:24.749Z,102952.95
2019-05-13T12:47:14.714Z,102959.67
2019-05-13T12:49:44.225Z,102952.20
2019-05-13T12:52:15.029Z,102953.51
2019-05-13T12:54:44.638Z,102945.05
2019-05-13T12:57:16.423Z,102962.09
2019-05-13T12:59:46.324Z,102961.00
2019-05-13T13:02:15.617Z,102966.95
2019-05-13T13:08:16.018Z,102979.39
2019-05-13T13:10:24.513Z,102951.38
2019-05-13T13:12:54.948Z,102959.69
2019-05-13T13:15:36.826Z,102962.75
2019-05-13T13:17:55.877Z,102959.41
2019-05-13T13:20:25.324Z,102967.95
2019-05-13T13:22:54.608Z,102922.92
2019-05-13T13:25:24.151Z,102964.93
2019-05-13T13:28:09.852Z,102950.45
2019-05-13T13:30:26.059Z,102954.08
2019-05-13T13:32:55.336Z,102964.83
2019-05-13T13:35:24.632Z,102964.75
2019-05-13T13:37:53.922Z,102966.84
2019-05-13T13:46:06.803Z,102963.69
2019-05-13T13:48:36.169Z,102947.14
2019-05-13T13:51:05.550Z,102967.55
2019-05-13T13:53:34.880Z,102976.86
2019-05-13T13:56:04.175Z,102961.39
2019-05-13T14:01:26.950Z,102954.06
2019-05-13T14:03:53.297Z,102957.78
2019-05-13T14:06:33.067Z,102941.28
2019-05-13T14:11:44.966Z,102966.44
2019-05-13T14:14:14.364Z,102959.13
2019-05-13T14:16:46.671Z,102970.98
2019-05-13T14:19:14.732Z,102973.30
2019-05-13T14:21:44.021Z,102956.56
2019-05-13T14:24:33.096Z,102962.08
2019-05-13T14:27:03.434Z,102962.75
2019-05-13T14:29:40.491Z,102960.92
2019-05-13T14:32:04.082Z,102958.65
2019-05-13T14:34:33.555Z,102952.50
2019-05-13T14:37:02.851Z,102973.55
2019-05-13T14:39:33.215Z,102971.71
2019-05-13T14:42:03.177Z,102974.83
2019-05-13T14:44:32.640Z,102987.45
2019-05-13T14:47:02.074Z,102970.47
2019-05-13T14:52:22.087Z,102989.27
2019-05-13T14:57:32.258Z,102982.41
2019-05-13T15:00:02.809Z,102975.85
2019-05-13T15:02:35.937Z,102978.66
2019-05-13T15:05:05.599Z,102979.73
2019-05-13T15:07:35.036Z,102983.73
2019-05-13T15:10:04.742Z,102972.27
2019-05-13T15:12:34.167Z,102968.37
2019-05-13T15:15:03.533Z,102978.50
2019-05-13T15:20:48.879Z,102978.31
2019-05-13T15:23:18.547Z,102980.23
2019-05-13T15:26:08.260Z,102975.80
2019-05-13T15:28:37.545Z,102986.20
2019-05-13T15:31:46.156Z,102969.80
2019-05-13T15:34:15.461Z,102972.98
2019-05-13T15:36:51.822Z,102968.70
2019-05-13T15:39:42.583Z,102982.00
2019-05-13T15:42:12.020Z,102988.27
2019-05-13T15:44:41.425Z,102985.66
2019-05-13T15:47:22.873Z,102994.27
2019-05-13T15:49:41.710Z,102988.39
2019-05-13T15:52:11.730Z,102984.14
2019-05-13T15:54:42.006Z,102991.28
2019-05-13T15:57:31.971Z,103002.65
2019-05-13T16:00:02.030Z,102993.04
2019-05-13T16:05:20.524Z,102995.79
2019-05-13T16:07:51.683Z,103002.36
2019-05-13T16:10:20.826Z,103007.34
2019-05-13T16:12:51.803Z,103004.62
2019-05-13T16:15:21.816Z,102992.20
2019-05-13T16:17:52.294Z,102981.42
2019-05-13T16:20:21.587Z,102977.48
2019-05-13T16:22:52.703Z,102978.52
2019-05-13T16:25:21.899Z,102988.02
2019-05-13T16:27:52.059Z,102984.33
2019-05-13T16:33:17.599Z,102985.88
2019-05-13T16:35:46.983Z,102986.19
2019-05-13T16:38:16.281Z,102986.98
2019-05-13T16:40:45.571Z,102992.94
2019-05-13T16:43:15.792Z,102987.11
2019-05-13T16:45:45.089Z,102992.11
2019-05-13T16:48:14.421Z,102988.22
2019-05-13T16:50:43.758Z,102982.50
2019-05-13T16:53:13.052Z,102999.09
2019-05-13T16:55:42.361Z,102994.02
2019-05-13T16:58:12.604Z,102998.27
2019-05-13T17:00:42.735Z,102996.92
2019-05-13T17:05:51.423Z,102999.63
2019-05-13T17:08:22.140Z,103001.92
2019-05-13T17:10:51.637Z,103008.70
2019-05-13T17:13:22.095Z,103017.80
2019-05-13T17:15:52.312Z,103011.16
2019-05-13T17:18:23.079Z,103012.67
2019-05-13T17:20:52.359Z,103021.08
2019-05-13T17:23:21.663Z,103024.09
2019-05-13T17:26:11.631Z,103028.03
2019-05-13T17:28:41.671Z,103018.07
2019-05-13T17:34:01.455Z,103027.13
2019-05-13T17:36:32.522Z,103019.50
2019-05-13T17:39:02.666Z,103023.14
2019-05-13T17:41:32.233Z,103035.16
2019-05-13T17:44:02.485Z,103037.14
2019-05-13T17:49:08.702Z,103049.16
2019-05-13T17:51:57.027Z,103037.88
2019-05-13T17:54:45.293Z,103032.50
2019-05-13T17:57:14.694Z,103029.94
2019-05-13T17:59:43.995Z,103023.73
2019-05-13T18:02:13.271Z,103025.00
2019-05-13T18:04:42.663Z,103027.98
2019-05-13T18:07:12.334Z,103027.80
2019-05-13T18:09:43.054Z,103024.58
2019-05-13T18:12:12.425Z,103023.65
2019-05-13T18:14:41.751Z,103019.30
2019-05-13T18:17:12.560Z,103032.45
2019-05-13T18:19:42.342Z,103032.44
2019-05-13T18:22:11.724Z,103034.47
2019-05-13T18:24:41.033Z,103038.05
2019-05-13T18:27:12.262Z,103043.37
2019-05-13T18:29:42.008Z,103039.80
2019-05-13T18:32:12.601Z,103041.04
2019-05-13T18:34:42.043Z,103048.08
2019-05-13T18:37:31.582Z,103057.05
2019-05-13T18:40:02.514Z,103055.36
2019-05-13T18:42:32.377Z,103052.14
2019-05-13T18:45:02.379Z,103058.41
2019-05-13T18:47:32.768Z,103058.70
2019-05-13T18:50:02.559Z,103057.41
2019-05-13T18:52:33.103Z,103054.95
2019-05-13T18:55:02.438Z,103063.05
2019-05-13T18:57:32.006Z,103068.66
2019-05-13T19:00:02.805Z,103060.06
2019-05-13T19:02:32.192Z,103062.50
2019-05-13T19:05:01.644Z,103057.94
2019-05-13T19:07:31.580Z,103066.52
2019-05-13T19:10:02.651Z,103072.52
2019-05-13T19:12:33.019Z,103070.16
2019-05-13T19:15:02.614Z,103077.40
2019-05-13T19:17:36.207Z,103079.72
2019-05-13T19:20:04.690Z,103069.86
2019-05-13T19:22:34.103Z,103067.79
2019-05-13T19:25:03.594Z,103076.34
2019-05-13T19:27:33.455Z,103081.73
2019-05-13T19:30:02.758Z,103083.23
2019-05-13T19:32:32.467Z,103089.11
2019-05-13T19:35:03.172Z,103086.71
2019-05-13T19:37:32.530Z,103083.47
2019-05-13T19:40:02.245Z,103084.09
2019-05-13T19:42:31.566Z,103084.73
2019-05-13T19:47:51.689Z,103083.31
2019-05-13T19:50:22.407Z,103078.73
2019-05-13T19:52:51.904Z,103068.77
2019-05-13T19:55:22.406Z,103077.69
2019-05-13T19:57:51.904Z,103082.70
2019-05-13T20:00:21.745Z,103084.14
2019-05-13T20:02:51.036Z,103089.94
2019-05-13T20:05:21.191Z,103088.72
2019-05-13T20:10:42.153Z,103090.70
2019-05-13T20:13:11.332Z,103089.06
2019-05-13T20:15:41.912Z,103094.41
2019-05-13T20:18:12.138Z,103095.41
2019-05-13T20:20:42.248Z,103103.38
2019-05-13T20:23:12.038Z,103099.00
2019-05-13T20:25:42.570Z,103102.11
2019-05-13T20:28:11.901Z,103103.50
2019-05-13T20:30:42.147Z,103112.77
2019-05-13T20:33:12.266Z,103115.84
2019-05-13T20:35:42.151Z,103100.55
2019-05-13T20:38:12.595Z,103113.27
2019-05-13T20:40:41.877Z,103115.06
2019-05-13T20:43:11.845Z,103122.97
2019-05-13T20:45:42.153Z,103130.45
2019-05-13T20:48:12.365Z,103134.40
2019-05-13T20:51:02.610Z,103143.15
2019-05-13T20:53:31.710Z,103143.15
2019-05-13T20:56:01.845Z,103146.67
2019-05-13T20:58:32.484Z,103154.55
2019-05-13T21:04:12.382Z,103162.44
2019-05-13T21:06:42.221Z,103163.31
2019-05-13T21:09:16.789Z,103171.60
2019-05-13T21:11:43.443Z,103172.05
2019-05-13T21:14:12.732Z,103176.82
2019-05-13T21:16:42.093Z,103175.06
2019-05-13T21:19:12.366Z,103176.81
2019-05-13T21:21:42.403Z,103185.98
2019-05-13T21:24:11.701Z,103183.34
2019-05-13T21:26:42.025Z,103184.17
2019-05-13T21:29:11.994Z,103181.98
2019-05-13T21:31:41.560Z,103178.45
2019-05-13T21:34:12.308Z,103175.81
2019-05-13T21:36:41.619Z,103171.85
2019-05-13T21:39:12.393Z,103170.09
2019-05-13T21:41:41.943Z,103170.07
2019-05-13T21:44:11.987Z,103165.22
2019-05-13T21:46:42.264Z,103170.44
2019-05-13T21:49:12.063Z,103161.69
2019-05-13T21:51:42.560Z,103171.66
2019-05-13T21:54:12.043Z,103169.88
2019-05-13T21:56:42.617Z,103166.33
2019-05-13T21:59:12.271Z,103177.67
2019-05-13T22:02:01.583Z,103176.78
2019-05-13T22:04:31.589Z,103172.80
2019-05-13T22:07:01.528Z,103167.93
2019-05-13T22:09:32.094Z,103169.63
2019-05-13T22:12:01.968Z,103177.46
2019-05-13T22:14:51.815Z,103183.13
2019-05-13T22:17:22.484Z,103178.27
2019-05-13T22:22:41.547Z,103181.66
2019-05-13T22:27:46.128Z,103173.69
2019-05-13T22:33:12.305Z,103178.81
2019-05-13T22:35:41.751Z,103181.38
2019-05-13T22:38:12.499Z,103180.03
2019-05-13T22:40:43.280Z,103180.88
2019-05-13T22:43:12.574Z,103185.63
2019-05-13T22:45:42.228Z,103186.41
2019-05-13T22:48:14.938Z,103182.42
2019-05-13T22:53:20.981Z,103186.28
2019-05-13T22:55:51.969Z,103184.50
2019-05-13T22:58:22.550Z,103185.34
2019-05-13T23:00:51.893Z,103180.91
2019-05-13T23:03:21.216Z,103178.25
2019-05-13T23:05:52.196Z,103179.09
2019-05-13T23:08:21.804Z,103176.02
2019-05-13T23:10:51.559Z,103175.48
2019-05-13T23:13:22.082Z,103171.08
2019-05-13T23:15:51.703Z,103174.94
2019-05-13T23:18:22.397Z,103170.93
2019-05-13T23:20:51.748Z,103173.51
2019-05-13T23:23:22.175Z,103166.49
2019-05-13T23:25:52.039Z,103162.97
2019-05-13T23:28:21.707Z,103166.37
2019-05-13T23:30:52.508Z,103168.50
2019-05-13T23:33:22.107Z,103175.02
2019-05-13T23:35:52.888Z,103186.75
2019-05-13T23:38:41.516Z,103190.27
2019-05-13T23:41:11.426Z,103189.00
2019-05-13T23:43:41.842Z,103182.91
2019-05-13T23:46:11.744Z,103192.05
2019-05-13T23:48:42.541Z,103197.60
2019-05-13T23:51:13.023Z,103196.23
2019-05-13T23:53:42.821Z,103187.86
2019-05-13T23:56:12.117Z,103186.02
2019-05-13T23:58:41.541Z,103188.52
